sensor_id;sensor_type;location;lat;lon;timestamp;temperature;humidity
21214;DHT22;10764;50.850;2.904;2023-05-10T00:01:28;21.90;57.70
21214;DHT22;10764;50.850;2.904;2023-05-10T00:03:55;22.00;57.70
21214;DHT22;10764;50.850;2.904;2023-05-10T00:06:22;21.90;58.00
21214;DHT22;10764;50.850;2.904;2023-05-10T00:08:49;22.00;57.80
21214;DHT22;10764;50.850;2.904;2023-05-10T00:11:15;22.00;58.10
21214;DHT22;10764;50.850;2.904;2023-05-10T00:13:42;20.70;57.10
21214;DHT22;10764;50.850;2.904;2023-05-10T00:16:09;21.90;58.20
21214;DHT22;10764;50.850;2.904;2023-05-10T00:18:36;22.00;57.70
21214;DHT22;10764;50.850;2.904;2023-05-10T00:21:03;22.00;58.00
21214;DHT22;10764;50.850;2.904;2023-05-10T00:23:30;22.00;57.90
21214;DHT22;10764;50.850;2.904;2023-05-10T00:25:57;22.00;58.00
21214;DHT22;10764;50.850;2.904;2023-05-10T00:28:25;21.90;58.10
21214;DHT22;10764;50.850;2.904;2023-05-10T00:30:53;21.90;57.70
21214;DHT22;10764;50.850;2.904;2023-05-10T00:33:20;21.90;58.00
21214;DHT22;10764;50.850;2.904;2023-05-10T00:35:47;22.00;57.80
21214;DHT22;10764;50.850;2.904;2023-05-10T00:38:14;21.90;57.70
21214;DHT22;10764;50.850;2.904;2023-05-10T00:40:41;22.00;58.10
21214;DHT22;10764;50.850;2.904;2023-05-10T00:43:15;22.00;57.80
21214;DHT22;10764;50.850;2.904;2023-05-10T00:45:42;22.00;58.20
21214;DHT22;10764;50.850;2.904;2023-05-10T00:48:09;22.00;57.90
21214;DHT22;10764;50.850;2.904;2023-05-10T00:50:36;22.00;58.10
21214;DHT22;10764;50.850;2.904;2023-05-10T00:53:03;22.00;57.80
21214;DHT22;10764;50.850;2.904;2023-05-10T00:55:31;22.00;58.40
21214;DHT22;10764;50.850;2.904;2023-05-10T00:57:58;22.00;58.30
21214;DHT22;10764;50.850;2.904;2023-05-10T01:00:25;22.00;58.50
21214;DHT22;10764;50.850;2.904;2023-05-10T01:02:53;21.90;57.70
21214;DHT22;10764;50.850;2.904;2023-05-10T01:05:21;21.90;57.60
21214;DHT22;10764;50.850;2.904;2023-05-10T01:07:49;21.90;58.30
21214;DHT22;10764;50.850;2.904;2023-05-10T01:10:16;21.90;57.80
21214;DHT22;10764;50.850;2.904;2023-05-10T01:12:46;21.90;58.10
21214;DHT22;10764;50.850;2.904;2023-05-10T01:15:15;22.00;57.90
21214;DHT22;10764;50.850;2.904;2023-05-10T01:17:46;21.90;57.80
21214;DHT22;10764;50.850;2.904;2023-05-10T01:20:14;21.90;57.90
21214;DHT22;10764;50.850;2.904;2023-05-10T01:22:50;21.90;58.00
21214;DHT22;10764;50.850;2.904;2023-05-10T01:28:17;21.90;57.70
21214;DHT22;10764;50.850;2.904;2023-05-10T01:31:03;21.90;58.00
21214;DHT22;10764;50.850;2.904;2023-05-10T01:36:28;21.90;57.70
21214;DHT22;10764;50.850;2.904;2023-05-10T01:39:11;21.90;57.80
21214;DHT22;10764;50.850;2.904;2023-05-10T01:41:49;21.90;57.70
21214;DHT22;10764;50.850;2.904;2023-05-10T01:44:35;22.00;57.80
21214;DHT22;10764;50.850;2.904;2023-05-10T01:47:17;21.90;57.70
21214;DHT22;10764;50.850;2.904;2023-05-10T01:49:51;21.90;57.70
21214;DHT22;10764;50.850;2.904;2023-05-10T01:52:26;21.90;57.80
21214;DHT22;10764;50.850;2.904;2023-05-10T01:55:11;21.90;58.00
21214;DHT22;10764;50.850;2.904;2023-05-10T01:57:40;21.90;57.60
21214;DHT22;10764;50.850;2.904;2023-05-10T02:00:09;21.90;57.80
21214;DHT22;10764;50.850;2.904;2023-05-10T02:02:44;21.90;57.80
21214;DHT22;10764;50.850;2.904;2023-05-10T02:05:13;21.90;57.80
21214;DHT22;10764;50.850;2.904;2023-05-10T02:07:42;21.90;57.80
21214;DHT22;10764;50.850;2.904;2023-05-10T02:10:10;22.00;57.90
21214;DHT22;10764;50.850;2.904;2023-05-10T02:12:40;21.90;58.00
21214;DHT22;10764;50.850;2.904;2023-05-10T02:15:09;21.90;57.80
21214;DHT22;10764;50.850;2.904;2023-05-10T02:17:37;21.90;57.80
21214;DHT22;10764;50.850;2.904;2023-05-10T02:20:06;21.90;57.80
21214;DHT22;10764;50.850;2.904;2023-05-10T02:22:35;21.90;57.80
21214;DHT22;10764;50.850;2.904;2023-05-10T02:25:04;21.90;57.70
21214;DHT22;10764;50.850;2.904;2023-05-10T02:27:33;21.90;57.70
21214;DHT22;10764;50.850;2.904;2023-05-10T02:30:01;21.90;57.80
21214;DHT22;10764;50.850;2.904;2023-05-10T02:32:29;21.90;58.10
21214;DHT22;10764;50.850;2.904;2023-05-10T02:34:57;21.90;58.20
21214;DHT22;10764;50.850;2.904;2023-05-10T02:37:25;22.00;58.10
21214;DHT22;10764;50.850;2.904;2023-05-10T02:39:55;21.90;57.80
21214;DHT22;10764;50.850;2.904;2023-05-10T02:42:25;21.90;57.80
21214;DHT22;10764;50.850;2.904;2023-05-10T02:45:05;21.90;57.70
21214;DHT22;10764;50.850;2.904;2023-05-10T02:47:35;21.90;57.60
21214;DHT22;10764;50.850;2.904;2023-05-10T02:50:02;21.90;58.10
21214;DHT22;10764;50.850;2.904;2023-05-10T02:52:49;21.90;58.10
21214;DHT22;10764;50.850;2.904;2023-05-10T02:55:21;21.90;57.70
21214;DHT22;10764;50.850;2.904;2023-05-10T02:57:53;21.90;57.80
21214;DHT22;10764;50.850;2.904;2023-05-10T03:00:24;21.90;57.90
21214;DHT22;10764;50.850;2.904;2023-05-10T03:02:51;21.90;57.70
21214;DHT22;10764;50.850;2.904;2023-05-10T03:05:19;21.90;58.30
21214;DHT22;10764;50.850;2.904;2023-05-10T03:07:47;21.90;58.10
21214;DHT22;10764;50.850;2.904;2023-05-10T03:10:14;21.90;58.00
21214;DHT22;10764;50.850;2.904;2023-05-10T03:13:06;21.90;58.50
21214;DHT22;10764;50.850;2.904;2023-05-10T03:15:59;21.90;57.70
21214;DHT22;10764;50.850;2.904;2023-05-10T03:21:04;21.90;58.00
21214;DHT22;10764;50.850;2.904;2023-05-10T03:23:44;21.90;57.70
21214;DHT22;10764;50.850;2.904;2023-05-10T03:26:22;21.90;57.80
21214;DHT22;10764;50.850;2.904;2023-05-10T03:28:52;21.90;57.60
21214;DHT22;10764;50.850;2.904;2023-05-10T03:31:20;21.90;57.70
21214;DHT22;10764;50.850;2.904;2023-05-10T03:33:48;21.90;58.00
21214;DHT22;10764;50.850;2.904;2023-05-10T03:36:21;21.90;57.70
21214;DHT22;10764;50.850;2.904;2023-05-10T03:38:47;21.90;57.80
21214;DHT22;10764;50.850;2.904;2023-05-10T03:41:14;21.90;58.20
21214;DHT22;10764;50.850;2.904;2023-05-10T03:43:41;21.90;58.20
21214;DHT22;10764;50.850;2.904;2023-05-10T03:46:08;21.90;58.10
21214;DHT22;10764;50.850;2.904;2023-05-10T03:48:35;21.90;57.80
21214;DHT22;10764;50.850;2.904;2023-05-10T03:51:02;21.90;58.20
21214;DHT22;10764;50.850;2.904;2023-05-10T03:53:29;21.90;58.40
21214;DHT22;10764;50.850;2.904;2023-05-10T03:55:56;21.90;57.90
21214;DHT22;10764;50.850;2.904;2023-05-10T03:58:23;21.90;58.40
21214;DHT22;10764;50.850;2.904;2023-05-10T04:00:51;21.90;57.90
21214;DHT22;10764;50.850;2.904;2023-05-10T04:03:18;21.90;57.70
21214;DHT22;10764;50.850;2.904;2023-05-10T04:05:45;21.90;57.90
21214;DHT22;10764;50.850;2.904;2023-05-10T04:08:12;21.90;58.60
21214;DHT22;10764;50.850;2.904;2023-05-10T04:10:39;21.90;57.90
21214;DHT22;10764;50.850;2.904;2023-05-10T04:13:06;21.90;58.00
21214;DHT22;10764;50.850;2.904;2023-05-10T04:15:33;21.90;57.80
21214;DHT22;10764;50.850;2.904;2023-05-10T04:18:00;21.90;58.00
21214;DHT22;10764;50.850;2.904;2023-05-10T04:20:27;21.90;58.10
21214;DHT22;10764;50.850;2.904;2023-05-10T04:22:54;21.90;57.90
21214;DHT22;10764;50.850;2.904;2023-05-10T04:25:21;21.90;57.80
21214;DHT22;10764;50.850;2.904;2023-05-10T04:27:48;21.90;58.10
21214;DHT22;10764;50.850;2.904;2023-05-10T04:30:14;21.90;58.00
21214;DHT22;10764;50.850;2.904;2023-05-10T04:32:42;21.90;58.00
21214;DHT22;10764;50.850;2.904;2023-05-10T04:35:09;21.90;57.60
21214;DHT22;10764;50.850;2.904;2023-05-10T04:37:37;21.90;57.60
21214;DHT22;10764;50.850;2.904;2023-05-10T04:40:04;21.90;57.50
21214;DHT22;10764;50.850;2.904;2023-05-10T04:42:31;21.90;57.50
21214;DHT22;10764;50.850;2.904;2023-05-10T04:44:59;21.90;58.00
21214;DHT22;10764;50.850;2.904;2023-05-10T04:47:25;21.90;57.90
21214;DHT22;10764;50.850;2.904;2023-05-10T04:49:52;21.90;58.10
21214;DHT22;10764;50.850;2.904;2023-05-10T04:52:19;21.90;58.00
21214;DHT22;10764;50.850;2.904;2023-05-10T04:54:46;21.90;58.00
21214;DHT22;10764;50.850;2.904;2023-05-10T04:57:13;21.90;57.40
21214;DHT22;10764;50.850;2.904;2023-05-10T04:59:40;21.90;57.90
21214;DHT22;10764;50.850;2.904;2023-05-10T05:02:07;21.90;58.00
21214;DHT22;10764;50.850;2.904;2023-05-10T05:04:34;21.90;58.10
21214;DHT22;10764;50.850;2.904;2023-05-10T05:07:01;21.90;57.50
21214;DHT22;10764;50.850;2.904;2023-05-10T05:09:28;21.90;57.60
21214;DHT22;10764;50.850;2.904;2023-05-10T05:11:54;21.90;58.00
21214;DHT22;10764;50.850;2.904;2023-05-10T05:14:21;21.90;57.30
21214;DHT22;10764;50.850;2.904;2023-05-10T05:16:48;21.90;57.20
21214;DHT22;10764;50.850;2.904;2023-05-10T05:19:15;22.00;57.40
21214;DHT22;10764;50.850;2.904;2023-05-10T05:21:42;21.90;57.10
21214;DHT22;10764;50.850;2.904;2023-05-10T05:24:09;21.90;57.00
21214;DHT22;10764;50.850;2.904;2023-05-10T05:26:38;21.90;56.80
21214;DHT22;10764;50.850;2.904;2023-05-10T05:29:05;21.90;56.90
21214;DHT22;10764;50.850;2.904;2023-05-10T05:31:34;21.90;57.10
21214;DHT22;10764;50.850;2.904;2023-05-10T05:34:00;21.90;56.80
21214;DHT22;10764;50.850;2.904;2023-05-10T05:36:28;21.90;56.70
21214;DHT22;10764;50.850;2.904;2023-05-10T05:38:55;21.90;57.20
21214;DHT22;10764;50.850;2.904;2023-05-10T05:41:21;21.90;56.50
21214;DHT22;10764;50.850;2.904;2023-05-10T05:43:49;21.90;56.50
21214;DHT22;10764;50.850;2.904;2023-05-10T05:46:15;21.90;56.90
21214;DHT22;10764;50.850;2.904;2023-05-10T05:48:42;21.90;56.40
21214;DHT22;10764;50.850;2.904;2023-05-10T05:51:09;21.90;56.20
21214;DHT22;10764;50.850;2.904;2023-05-10T05:53:37;21.90;56.20
21214;DHT22;10764;50.850;2.904;2023-05-10T05:56:04;22.00;56.40
21214;DHT22;10764;50.850;2.904;2023-05-10T05:58:31;21.90;56.20
21214;DHT22;10764;50.850;2.904;2023-05-10T06:00:57;21.90;56.10
21214;DHT22;10764;50.850;2.904;2023-05-10T06:03:24;21.90;56.20
21214;DHT22;10764;50.850;2.904;2023-05-10T06:05:51;21.90;56.20
21214;DHT22;10764;50.850;2.904;2023-05-10T06:08:18;22.00;56.10
21214;DHT22;10764;50.850;2.904;2023-05-10T06:10:45;21.90;56.00
21214;DHT22;10764;50.850;2.904;2023-05-10T06:13:12;21.90;55.90
21214;DHT22;10764;50.850;2.904;2023-05-10T06:15:39;22.00;56.00
21214;DHT22;10764;50.850;2.904;2023-05-10T06:18:06;21.90;56.00
21214;DHT22;10764;50.850;2.904;2023-05-10T06:20:33;22.00;56.00
21214;DHT22;10764;50.850;2.904;2023-05-10T06:23:00;22.00;56.70
21214;DHT22;10764;50.850;2.904;2023-05-10T06:25:26;22.00;56.10
21214;DHT22;10764;50.850;2.904;2023-05-10T06:27:54;22.00;56.00
21214;DHT22;10764;50.850;2.904;2023-05-10T06:30:25;22.00;56.60
21214;DHT22;10764;50.850;2.904;2023-05-10T06:32:56;22.00;56.20
21214;DHT22;10764;50.850;2.904;2023-05-10T06:35:23;22.00;56.60
21214;DHT22;10764;50.850;2.904;2023-05-10T06:37:50;22.10;57.00
21214;DHT22;10764;50.850;2.904;2023-05-10T06:40:18;22.10;56.50
21214;DHT22;10764;50.850;2.904;2023-05-10T06:42:47;22.00;56.20
21214;DHT22;10764;50.850;2.904;2023-05-10T06:45:14;22.10;56.20
21214;DHT22;10764;50.850;2.904;2023-05-10T06:47:42;22.10;56.00
21214;DHT22;10764;50.850;2.904;2023-05-10T06:50:10;22.00;55.90
21214;DHT22;10764;50.850;2.904;2023-05-10T06:52:40;22.10;55.80
21214;DHT22;10764;50.850;2.904;2023-05-10T06:55:08;22.10;55.90
21214;DHT22;10764;50.850;2.904;2023-05-10T06:57:35;22.10;55.80
21214;DHT22;10764;50.850;2.904;2023-05-10T07:00:02;22.10;55.80
21214;DHT22;10764;50.850;2.904;2023-05-10T07:02:32;22.10;55.60
21214;DHT22;10764;50.850;2.904;2023-05-10T07:04:59;22.10;55.60
21214;DHT22;10764;50.850;2.904;2023-05-10T07:07:30;22.10;55.50
21214;DHT22;10764;50.850;2.904;2023-05-10T07:09:58;22.10;55.50
21214;DHT22;10764;50.850;2.904;2023-05-10T07:12:24;22.10;55.50
21214;DHT22;10764;50.850;2.904;2023-05-10T07:14:51;22.20;55.40
21214;DHT22;10764;50.850;2.904;2023-05-10T07:17:18;22.20;55.30
21214;DHT22;10764;50.850;2.904;2023-05-10T07:19:45;22.20;55.30
21214;DHT22;10764;50.850;2.904;2023-05-10T07:22:12;22.20;55.30
21214;DHT22;10764;50.850;2.904;2023-05-10T07:24:40;22.20;55.20
21214;DHT22;10764;50.850;2.904;2023-05-10T07:27:07;22.20;55.20
21214;DHT22;10764;50.850;2.904;2023-05-10T07:29:34;22.20;55.20
21214;DHT22;10764;50.850;2.904;2023-05-10T07:32:02;22.10;55.20
21214;DHT22;10764;50.850;2.904;2023-05-10T07:34:29;22.20;55.30
21214;DHT22;10764;50.850;2.904;2023-05-10T07:36:59;22.10;55.20
21214;DHT22;10764;50.850;2.904;2023-05-10T07:39:27;22.10;55.30
21214;DHT22;10764;50.850;2.904;2023-05-10T07:41:57;22.10;55.40
21214;DHT22;10764;50.850;2.904;2023-05-10T07:44:24;22.10;55.30
21214;DHT22;10764;50.850;2.904;2023-05-10T07:46:52;22.10;56.10
21214;DHT22;10764;50.850;2.904;2023-05-10T07:49:19;22.10;55.60
21214;DHT22;10764;50.850;2.904;2023-05-10T07:51:46;22.10;55.70
21214;DHT22;10764;50.850;2.904;2023-05-10T07:54:13;22.20;55.60
21214;DHT22;10764;50.850;2.904;2023-05-10T07:56:40;22.10;55.70
21214;DHT22;10764;50.850;2.904;2023-05-10T07:59:15;22.10;55.20
21214;DHT22;10764;50.850;2.904;2023-05-10T08:01:43;22.10;55.30
21214;DHT22;10764;50.850;2.904;2023-05-10T08:04:10;22.20;55.10
21214;DHT22;10764;50.850;2.904;2023-05-10T08:06:38;22.20;55.50
21214;DHT22;10764;50.850;2.904;2023-05-10T08:09:05;22.20;55.10
21214;DHT22;10764;50.850;2.904;2023-05-10T08:11:33;22.20;55.90
21214;DHT22;10764;50.850;2.904;2023-05-10T08:14:01;22.20;55.60
21214;DHT22;10764;50.850;2.904;2023-05-10T08:16:27;22.20;55.10
21214;DHT22;10764;50.850;2.904;2023-05-10T08:18:55;22.20;55.30
21214;DHT22;10764;50.850;2.904;2023-05-10T08:21:22;22.30;55.50
21214;DHT22;10764;50.850;2.904;2023-05-10T08:23:49;22.30;55.40
21214;DHT22;10764;50.850;2.904;2023-05-10T08:26:16;22.30;55.00
21214;DHT22;10764;50.850;2.904;2023-05-10T08:28:43;22.20;55.30
21214;DHT22;10764;50.850;2.904;2023-05-10T08:31:11;22.20;54.90
21214;DHT22;10764;50.850;2.904;2023-05-10T08:33:38;22.20;55.60
21214;DHT22;10764;50.850;2.904;2023-05-10T08:36:08;22.20;55.40
21214;DHT22;10764;50.850;2.904;2023-05-10T08:38:37;22.20;55.00
21214;DHT22;10764;50.850;2.904;2023-05-10T08:41:05;22.20;54.90
21214;DHT22;10764;50.850;2.904;2023-05-10T08:43:33;22.20;54.80
21214;DHT22;10764;50.850;2.904;2023-05-10T08:46:01;22.20;55.00
21214;DHT22;10764;50.850;2.904;2023-05-10T08:48:29;22.10;55.10
21214;DHT22;10764;50.850;2.904;2023-05-10T08:50:58;22.20;55.70
21214;DHT22;10764;50.850;2.904;2023-05-10T08:53:28;22.10;54.80
21214;DHT22;10764;50.850;2.904;2023-05-10T08:55:57;22.10;55.10
21214;DHT22;10764;50.850;2.904;2023-05-10T08:58:25;22.10;55.70
21214;DHT22;10764;50.850;2.904;2023-05-10T09:00:52;22.20;55.40
21214;DHT22;10764;50.850;2.904;2023-05-10T09:03:20;22.10;55.50
21214;DHT22;10764;50.850;2.904;2023-05-10T09:05:48;22.10;55.00
21214;DHT22;10764;50.850;2.904;2023-05-10T09:08:15;22.00;55.00
21214;DHT22;10764;50.850;2.904;2023-05-10T09:10:44;22.10;55.80
21214;DHT22;10764;50.850;2.904;2023-05-10T09:13:11;22.10;55.00
21214;DHT22;10764;50.850;2.904;2023-05-10T09:15:38;22.10;55.20
21214;DHT22;10764;50.850;2.904;2023-05-10T09:18:05;22.10;55.00
21214;DHT22;10764;50.850;2.904;2023-05-10T09:20:32;22.20;54.90
21214;DHT22;10764;50.850;2.904;2023-05-10T09:22:59;22.20;54.80
21214;DHT22;10764;50.850;2.904;2023-05-10T09:25:26;22.20;54.70
21214;DHT22;10764;50.850;2.904;2023-05-10T09:27:53;22.20;54.80
21214;DHT22;10764;50.850;2.904;2023-05-10T09:30:29;22.20;54.70
21214;DHT22;10764;50.850;2.904;2023-05-10T09:32:58;22.20;54.60
21214;DHT22;10764;50.850;2.904;2023-05-10T09:35:28;22.20;54.60
21214;DHT22;10764;50.850;2.904;2023-05-10T09:37:58;22.20;54.60
21214;DHT22;10764;50.850;2.904;2023-05-10T09:40:27;22.20;54.60
21214;DHT22;10764;50.850;2.904;2023-05-10T09:43:02;22.20;54.60
21214;DHT22;10764;50.850;2.904;2023-05-10T09:45:32;22.20;54.60
21214;DHT22;10764;50.850;2.904;2023-05-10T09:48:03;22.20;55.60
21214;DHT22;10764;50.850;2.904;2023-05-10T09:50:30;22.10;55.00
21214;DHT22;10764;50.850;2.904;2023-05-10T09:53:02;22.10;54.80
21214;DHT22;10764;50.850;2.904;2023-05-10T09:58:07;22.10;54.80
21214;DHT22;10764;50.850;2.904;2023-05-10T10:00:38;22.10;54.80
21214;DHT22;10764;50.850;2.904;2023-05-10T10:03:07;22.20;54.70
21214;DHT22;10764;50.850;2.904;2023-05-10T10:05:40;22.20;54.50
21214;DHT22;10764;50.850;2.904;2023-05-10T10:08:09;22.20;54.50
21214;DHT22;10764;50.850;2.904;2023-05-10T10:10:36;22.30;54.40
21214;DHT22;10764;50.850;2.904;2023-05-10T10:13:05;22.30;54.30
21214;DHT22;10764;50.850;2.904;2023-05-10T10:15:33;22.30;54.20
21214;DHT22;10764;50.850;2.904;2023-05-10T10:18:00;22.30;54.10
21214;DHT22;10764;50.850;2.904;2023-05-10T10:20:28;22.30;54.10
21214;DHT22;10764;50.850;2.904;2023-05-10T10:22:55;22.40;54.20
21214;DHT22;10764;50.850;2.904;2023-05-10T10:25:22;22.30;54.10
21214;DHT22;10764;50.850;2.904;2023-05-10T10:30:48;22.30;54.00
21214;DHT22;10764;50.850;2.904;2023-05-10T10:36:21;22.30;54.00
21214;DHT22;10764;50.850;2.904;2023-05-10T10:41:34;22.30;54.10
21214;DHT22;10764;50.850;2.904;2023-05-10T10:44:33;22.30;54.00
21214;DHT22;10764;50.850;2.904;2023-05-10T10:47:06;22.30;54.10
21214;DHT22;10764;50.850;2.904;2023-05-10T10:49:43;22.30;54.10
21214;DHT22;10764;50.850;2.904;2023-05-10T10:55:07;22.30;54.10
21214;DHT22;10764;50.850;2.904;2023-05-10T11:00:25;22.40;54.10
21214;DHT22;10764;50.850;2.904;2023-05-10T11:02:57;22.30;54.10
21214;DHT22;10764;50.850;2.904;2023-05-10T11:05:35;22.30;54.60
21214;DHT22;10764;50.850;2.904;2023-05-10T11:10:38;22.40;53.80
21214;DHT22;10764;50.850;2.904;2023-05-10T11:13:09;22.40;53.70
21214;DHT22;10764;50.850;2.904;2023-05-10T11:15:40;22.40;53.60
21214;DHT22;10764;50.850;2.904;2023-05-10T11:18:28;22.40;53.60
21214;DHT22;10764;50.850;2.904;2023-05-10T11:20:59;22.40;53.60
21214;DHT22;10764;50.850;2.904;2023-05-10T11:26:08;22.40;53.40
21214;DHT22;10764;50.850;2.904;2023-05-10T11:28:44;22.40;53.50
21214;DHT22;10764;50.850;2.904;2023-05-10T11:31:14;22.40;53.40
21214;DHT22;10764;50.850;2.904;2023-05-10T11:33:49;22.40;53.40
21214;DHT22;10764;50.850;2.904;2023-05-10T11:36:19;22.40;53.20
21214;DHT22;10764;50.850;2.904;2023-05-10T11:38:47;22.40;53.10
21214;DHT22;10764;50.850;2.904;2023-05-10T11:41:15;22.40;53.20
21214;DHT22;10764;50.850;2.904;2023-05-10T11:43:46;22.40;53.30
21214;DHT22;10764;50.850;2.904;2023-05-10T11:46:13;22.40;53.30
21214;DHT22;10764;50.850;2.904;2023-05-10T11:48:41;22.40;53.10
21214;DHT22;10764;50.850;2.904;2023-05-10T11:51:10;22.40;52.90
21214;DHT22;10764;50.850;2.904;2023-05-10T11:53:37;22.40;52.70
21214;DHT22;10764;50.850;2.904;2023-05-10T11:56:05;22.40;53.10
21214;DHT22;10764;50.850;2.904;2023-05-10T11:58:33;22.40;52.70
21214;DHT22;10764;50.850;2.904;2023-05-10T12:01:00;22.50;52.60
21214;DHT22;10764;50.850;2.904;2023-05-10T12:03:28;22.50;52.60
21214;DHT22;10764;50.850;2.904;2023-05-10T12:05:56;22.40;52.40
21214;DHT22;10764;50.850;2.904;2023-05-10T12:08:26;22.50;52.60
21214;DHT22;10764;50.850;2.904;2023-05-10T12:11:03;23.30;52.60
21214;DHT22;10764;50.850;2.904;2023-05-10T12:13:30;22.50;52.00
21214;DHT22;10764;50.850;2.904;2023-05-10T12:15:58;22.40;52.40
21214;DHT22;10764;50.850;2.904;2023-05-10T12:18:25;22.40;52.50
21214;DHT22;10764;50.850;2.904;2023-05-10T12:20:53;22.30;52.40
21214;DHT22;10764;50.850;2.904;2023-05-10T12:23:22;22.50;52.30
21214;DHT22;10764;50.850;2.904;2023-05-10T12:25:49;22.50;52.10
21214;DHT22;10764;50.850;2.904;2023-05-10T12:28:19;22.50;52.20
21214;DHT22;10764;50.850;2.904;2023-05-10T12:30:46;22.50;52.00
21214;DHT22;10764;50.850;2.904;2023-05-10T12:33:14;22.50;51.70
21214;DHT22;10764;50.850;2.904;2023-05-10T12:35:51;22.50;51.60
21214;DHT22;10764;50.850;2.904;2023-05-10T12:40:57;22.60;51.00
21214;DHT22;10764;50.850;2.904;2023-05-10T12:43:25;22.60;51.40
21214;DHT22;10764;50.850;2.904;2023-05-10T12:45:52;22.60;51.90
21214;DHT22;10764;50.850;2.904;2023-05-10T12:48:19;22.60;51.70
21214;DHT22;10764;50.850;2.904;2023-05-10T12:50:46;22.60;51.20
21214;DHT22;10764;50.850;2.904;2023-05-10T12:53:14;22.60;51.70
21214;DHT22;10764;50.850;2.904;2023-05-10T12:55:43;22.60;51.00
21214;DHT22;10764;50.850;2.904;2023-05-10T12:58:10;22.60;50.90
21214;DHT22;10764;50.850;2.904;2023-05-10T13:00:46;22.60;50.90
21214;DHT22;10764;50.850;2.904;2023-05-10T13:03:13;22.60;51.30
21214;DHT22;10764;50.850;2.904;2023-05-10T13:05:42;22.60;50.80
21214;DHT22;10764;50.850;2.904;2023-05-10T13:08:09;22.70;50.50
21214;DHT22;10764;50.850;2.904;2023-05-10T13:10:36;22.70;50.90
21214;DHT22;10764;50.850;2.904;2023-05-10T13:13:02;22.60;50.80
21214;DHT22;10764;50.850;2.904;2023-05-10T13:15:29;22.70;51.00
21214;DHT22;10764;50.850;2.904;2023-05-10T13:17:56;22.70;51.40
21214;DHT22;10764;50.850;2.904;2023-05-10T13:20:24;22.70;50.90
21214;DHT22;10764;50.850;2.904;2023-05-10T13:22:51;22.60;50.20
21214;DHT22;10764;50.850;2.904;2023-05-10T13:25:18;22.60;50.60
21214;DHT22;10764;50.850;2.904;2023-05-10T13:27:45;22.60;50.30
21214;DHT22;10764;50.850;2.904;2023-05-10T13:30:12;22.70;50.40
21214;DHT22;10764;50.850;2.904;2023-05-10T13:32:39;22.70;50.40
21214;DHT22;10764;50.850;2.904;2023-05-10T13:35:07;22.70;50.20
21214;DHT22;10764;50.850;2.904;2023-05-10T13:37:34;22.70;49.80
21214;DHT22;10764;50.850;2.904;2023-05-10T13:40:04;22.80;50.00
21214;DHT22;10764;50.850;2.904;2023-05-10T13:42:31;22.70;49.40
21214;DHT22;10764;50.850;2.904;2023-05-10T13:45:00;22.70;49.90
21214;DHT22;10764;50.850;2.904;2023-05-10T13:47:30;22.70;49.70
21214;DHT22;10764;50.850;2.904;2023-05-10T13:49:57;22.70;49.50
21214;DHT22;10764;50.850;2.904;2023-05-10T13:52:25;22.70;49.50
21214;DHT22;10764;50.850;2.904;2023-05-10T13:54:52;22.80;49.40
21214;DHT22;10764;50.850;2.904;2023-05-10T13:57:21;22.80;49.20
21214;DHT22;10764;50.850;2.904;2023-05-10T13:59:49;22.80;48.80
21214;DHT22;10764;50.850;2.904;2023-05-10T14:02:17;22.80;48.90
21214;DHT22;10764;50.850;2.904;2023-05-10T14:04:44;22.80;49.30
21214;DHT22;10764;50.850;2.904;2023-05-10T14:07:10;22.80;49.30
21214;DHT22;10764;50.850;2.904;2023-05-10T14:09:37;22.80;48.90
21214;DHT22;10764;50.850;2.904;2023-05-10T14:12:04;22.80;49.00
21214;DHT22;10764;50.850;2.904;2023-05-10T14:14:31;22.80;48.80
21214;DHT22;10764;50.850;2.904;2023-05-10T14:16:58;22.90;48.80
21214;DHT22;10764;50.850;2.904;2023-05-10T14:19:26;22.90;48.80
21214;DHT22;10764;50.850;2.904;2023-05-10T14:21:53;22.90;49.30
21214;DHT22;10764;50.850;2.904;2023-05-10T14:24:20;22.80;48.50
21214;DHT22;10764;50.850;2.904;2023-05-10T14:26:47;22.90;49.00
21214;DHT22;10764;50.850;2.904;2023-05-10T14:29:14;22.80;48.70
21214;DHT22;10764;50.850;2.904;2023-05-10T14:31:41;22.80;48.70
21214;DHT22;10764;50.850;2.904;2023-05-10T14:34:08;22.80;49.10
21214;DHT22;10764;50.850;2.904;2023-05-10T14:36:35;22.80;48.60
21214;DHT22;10764;50.850;2.904;2023-05-10T14:39:02;22.80;49.20
21214;DHT22;10764;50.850;2.904;2023-05-10T14:41:30;22.80;49.10
21214;DHT22;10764;50.850;2.904;2023-05-10T14:43:57;22.80;48.90
21214;DHT22;10764;50.850;2.904;2023-05-10T14:46:24;22.80;48.60
21214;DHT22;10764;50.850;2.904;2023-05-10T14:48:52;22.80;49.20
21214;DHT22;10764;50.850;2.904;2023-05-10T14:51:19;22.80;49.10
21214;DHT22;10764;50.850;2.904;2023-05-10T14:53:48;22.80;49.00
21214;DHT22;10764;50.850;2.904;2023-05-10T14:56:16;22.80;49.20
21214;DHT22;10764;50.850;2.904;2023-05-10T14:58:43;22.80;48.90
21214;DHT22;10764;50.850;2.904;2023-05-10T15:01:10;22.80;48.80
21214;DHT22;10764;50.850;2.904;2023-05-10T15:03:37;22.80;48.80
21214;DHT22;10764;50.850;2.904;2023-05-10T15:06:05;22.90;48.80
21214;DHT22;10764;50.850;2.904;2023-05-10T15:08:32;23.00;48.60
21214;DHT22;10764;50.850;2.904;2023-05-10T15:10:59;23.10;48.40
21214;DHT22;10764;50.850;2.904;2023-05-10T15:13:26;23.00;48.60
21214;DHT22;10764;50.850;2.904;2023-05-10T15:15:53;23.10;48.20
21214;DHT22;10764;50.850;2.904;2023-05-10T15:18:20;23.10;47.90
21214;DHT22;10764;50.850;2.904;2023-05-10T15:20:49;23.10;47.80
21214;DHT22;10764;50.850;2.904;2023-05-10T15:23:16;23.10;47.70
21214;DHT22;10764;50.850;2.904;2023-05-10T15:25:43;23.20;47.80
21214;DHT22;10764;50.850;2.904;2023-05-10T15:28:10;23.20;47.70
21214;DHT22;10764;50.850;2.904;2023-05-10T15:30:37;23.20;47.60
21214;DHT22;10764;50.850;2.904;2023-05-10T15:33:04;23.20;47.50
21214;DHT22;10764;50.850;2.904;2023-05-10T15:35:31;23.20;47.90
21214;DHT22;10764;50.850;2.904;2023-05-10T15:37:58;23.20;47.60
21214;DHT22;10764;50.850;2.904;2023-05-10T15:40:25;23.10;47.60
21214;DHT22;10764;50.850;2.904;2023-05-10T15:42:51;23.10;47.80
21214;DHT22;10764;50.850;2.904;2023-05-10T15:45:19;23.10;48.40
21214;DHT22;10764;50.850;2.904;2023-05-10T15:47:46;23.10;47.60
21214;DHT22;10764;50.850;2.904;2023-05-10T15:50:14;23.10;48.00
21214;DHT22;10764;50.850;2.904;2023-05-10T15:52:41;23.10;48.10
21214;DHT22;10764;50.850;2.904;2023-05-10T15:55:08;23.00;47.90
21214;DHT22;10764;50.850;2.904;2023-05-10T15:57:39;23.00;48.20
21214;DHT22;10764;50.850;2.904;2023-05-10T16:00:11;23.00;47.80
21214;DHT22;10764;50.850;2.904;2023-05-10T16:02:39;23.00;47.90
21214;DHT22;10764;50.850;2.904;2023-05-10T16:05:07;23.00;47.90
21214;DHT22;10764;50.850;2.904;2023-05-10T16:07:35;23.00;48.00
21214;DHT22;10764;50.850;2.904;2023-05-10T16:10:02;22.90;48.80
21214;DHT22;10764;50.850;2.904;2023-05-10T16:12:32;22.90;49.10